Time;durP1;ratioP1;P1;durP2;ratioP2;P2;SDS_P1;SDS_P2;PMS_P1;PMS_P2;Temp;Humidity;BMP_temperature;BMP_pressure;BME280_temperature;BME280_humidity;BME280_pressure;Samples;Min_cycle;Max_cycle;Signal;HPM_P1;HPM_P2
2022/04/30 00:01:34;;;;;;;5.60;4.78;;;;;;;;;;4909226;29;20043;-76
2022/04/30 00:04:00;;;;;;;10.35;5.68;;;;;;;;;;4912614;29;20052;-78
2022/04/30 00:06:26;;;;;;;7.22;4.32;;;;;;;;;;4908762;29;20061;-74
2022/04/30 00:08:52;;;;;;;6.20;4.63;;;;;;;;;;4907517;29;20036;-77
2022/04/30 00:11:18;;;;;;;8.23;5.25;;;;;;;;;;4908335;29;20028;-75
2022/04/30 00:13:46;;;;;;;7.20;4.82;;;;;;;;;;4909172;29;20052;-76
2022/04/30 00:16:12;;;;;;;6.07;4.85;;;;;;;;;;4909984;29;20028;-77
2022/04/30 00:18:38;;;;;;;9.45;5.47;;;;;;;;;;4891366;29;20033;-75
2022/04/30 00:21:05;;;;;;;7.22;4.97;;;;;;;;;;4909826;29;20028;-78
2022/04/30 00:23:31;;;;;;;7.78;5.43;;;;;;;;;;4912575;29;20032;-79
2022/04/30 00:25:57;;;;;;;6.35;5.20;;;;;;;;;;4908895;29;20438;-74
2022/04/30 00:28:25;;;;;;;8.70;5.70;;;;;;;;;;4907120;29;20025;-78
2022/04/30 00:30:51;;;;;;;6.43;4.70;;;;;;;;;;4910357;29;20032;-75
2022/04/30 00:33:17;;;;;;;6.50;4.90;;;;;;;;;;4909886;29;20021;-75
2022/04/30 00:35:44;;;;;;;6.68;5.10;;;;;;;;;;4909291;29;20028;-77
2022/04/30 00:38:10;;;;;;;6.90;5.32;;;;;;;;;;4911604;29;20463;-76
2022/04/30 00:40:37;;;;;;;6.20;5.22;;;;;;;;;;4904229;29;20024;-74
2022/04/30 00:43:03;;;;;;;8.05;6.07;;;;;;;;;;4908327;29;20048;-75
2022/04/30 00:45:29;;;;;;;9.82;6.45;;;;;;;;;;4907283;29;20069;-75
2022/04/30 00:47:55;;;;;;;10.57;7.40;;;;;;;;;;4909305;29;20041;-78
2022/04/30 00:50:21;;;;;;;10.15;7.80;;;;;;;;;;4907644;29;20563;-78
2022/04/30 00:52:48;;;;;;;9.30;7.53;;;;;;;;;;4907011;29;20490;-77
2022/04/30 00:55:19;;;;;;;12.77;7.93;;;;;;;;;;4908823;29;20028;-79
2022/04/30 00:57:45;;;;;;;9.98;7.88;;;;;;;;;;4911311;29;20025;-78
2022/04/30 01:00:12;;;;;;;9.43;7.28;;;;;;;;;;4906533;29;20029;-74
2022/04/30 01:02:38;;;;;;;10.07;6.55;;;;;;;;;;4906246;29;20025;-75
2022/04/30 01:05:05;;;;;;;9.82;6.25;;;;;;;;;;4909767;29;20033;-77
2022/04/30 01:07:32;;;;;;;7.90;6.25;;;;;;;;;;4906196;29;20119;-75
2022/04/30 01:09:59;;;;;;;7.30;5.80;;;;;;;;;;4909646;29;20033;-78
2022/04/30 01:12:25;;;;;;;6.95;5.78;;;;;;;;;;4906025;29;20064;-77
2022/04/30 01:14:52;;;;;;;11.30;5.93;;;;;;;;;;4910066;29;20028;-77
2022/04/30 01:17:19;;;;;;;8.23;5.57;;;;;;;;;;4910565;29;20092;-75
2022/04/30 01:19:47;;;;;;;12.52;6.50;;;;;;;;;;4905497;29;20084;-74
2022/04/30 01:22:24;;;;;;;9.35;6.47;;;;;;;;;;4904432;29;20045;-78
2022/04/30 01:24:50;;;;;;;13.95;6.68;;;;;;;;;;4905478;29;20387;-76
2022/04/30 01:27:16;;;;;;;8.45;5.97;;;;;;;;;;4908548;29;20499;-75
2022/04/30 01:29:43;;;;;;;10.75;6.00;;;;;;;;;;4904841;29;20047;-76
2022/04/30 01:37:40;;;;;;;7.63;5.80;;;;;;;;;;4908580;29;20116;-75
2022/04/30 01:40:11;;;;;;;8.02;5.95;;;;;;;;;;4908980;29;20036;-75
2022/04/30 01:42:42;;;;;;;7.32;5.68;;;;;;;;;;4906673;29;20512;-75
2022/04/30 01:45:08;;;;;;;7.75;5.45;;;;;;;;;;4890654;29;20044;-75
2022/04/30 01:47:37;;;;;;;9.52;6.30;;;;;;;;;;4885491;29;20033;-78
2022/04/30 01:50:03;;;;;;;9.13;6.10;;;;;;;;;;4887811;29;20028;-75
2022/04/30 01:52:30;;;;;;;8.27;6.68;;;;;;;;;;4888747;29;20036;-78
2022/04/30 01:54:56;;;;;;;8.57;5.40;;;;;;;;;;4886558;29;20085;-78
2022/04/30 01:57:23;;;;;;;8.32;5.53;;;;;;;;;;4887975;29;20465;-75
2022/04/30 01:59:52;;;;;;;7.82;5.82;;;;;;;;;;4889909;29;20471;-75
2022/04/30 02:02:19;;;;;;;7.80;5.55;;;;;;;;;;4889140;29;20041;-75
2022/04/30 02:04:45;;;;;;;10.57;6.80;;;;;;;;;;4886229;29;20118;-74
2022/04/30 02:07:14;;;;;;;8.65;6.30;;;;;;;;;;4889630;29;20037;-74
2022/04/30 02:09:41;;;;;;;8.20;6.53;;;;;;;;;;4888078;29;20017;-75
2022/04/30 02:12:07;;;;;;;7.45;6.18;;;;;;;;;;4887371;29;20033;-75
2022/04/30 02:14:35;;;;;;;10.30;6.80;;;;;;;;;;4888149;29;20033;-75
2022/04/30 02:17:01;;;;;;;8.10;6.18;;;;;;;;;;4888542;29;20029;-75
2022/04/30 02:19:28;;;;;;;7.75;6.20;;;;;;;;;;4888030;29;20368;-75
2022/04/30 02:21:59;;;;;;;8.25;6.15;;;;;;;;;;4889251;29;20033;-75
2022/04/30 02:24:27;;;;;;;9.85;6.45;;;;;;;;;;4886724;29;20032;-78
2022/04/30 02:26:53;;;;;;;8.40;5.93;;;;;;;;;;4882296;29;20076;-75
2022/04/30 02:29:20;;;;;;;7.88;6.30;;;;;;;;;;4883434;29;20468;-75
2022/04/30 02:31:47;;;;;;;7.50;6.15;;;;;;;;;;4886971;29;20416;-78
2022/04/30 02:34:14;;;;;;;7.80;5.80;;;;;;;;;;4886546;29;20025;-77
2022/04/30 02:36:40;;;;;;;8.15;5.70;;;;;;;;;;4866017;29;20025;-75
2022/04/30 02:39:06;;;;;;;9.40;6.05;;;;;;;;;;4867562;29;20042;-75
2022/04/30 02:41:33;;;;;;;6.85;5.90;;;;;;;;;;4873253;29;20040;-75
2022/04/30 02:43:59;;;;;;;6.88;5.80;;;;;;;;;;4896876;29;20056;-74
2022/04/30 02:46:27;;;;;;;7.13;5.68;;;;;;;;;;4904733;29;20508;-76
2022/04/30 02:48:53;;;;;;;7.88;6.30;;;;;;;;;;4902649;29;20084;-74
2022/04/30 02:51:21;;;;;;;6.53;5.53;;;;;;;;;;4903753;29;20032;-75
2022/04/30 02:53:47;;;;;;;8.05;6.03;;;;;;;;;;4909129;29;20156;-75
2022/04/30 02:56:13;;;;;;;7.97;5.50;;;;;;;;;;4908089;29;20031;-78
2022/04/30 03:01:24;;;;;;;10.43;6.38;;;;;;;;;;4908995;29;20023;-79
2022/04/30 03:03:51;;;;;;;8.85;6.13;;;;;;;;;;4908974;29;20052;-75
2022/04/30 03:06:17;;;;;;;9.70;6.35;;;;;;;;;;4904567;29;20032;-74
2022/04/30 03:08:47;;;;;;;8.27;6.10;;;;;;;;;;4904433;29;20036;-75
2022/04/30 03:11:13;;;;;;;7.45;6.05;;;;;;;;;;4905669;29;20036;-75
2022/04/30 03:13:40;;;;;;;8.70;6.78;;;;;;;;;;4904399;29;20032;-75
2022/04/30 03:21:46;;;;;;;9.27;6.80;;;;;;;;;;4883954;29;20043;-75
2022/04/30 03:24:15;;;;;;;11.98;6.95;;;;;;;;;;4891529;29;20033;-78
2022/04/30 03:26:42;;;;;;;9.25;7.35;;;;;;;;;;4902655;29;20041;-76
2022/04/30 03:29:09;;;;;;;9.10;7.35;;;;;;;;;;4907600;29;20036;-76
2022/04/30 03:31:35;;;;;;;10.90;7.55;;;;;;;;;;4902392;29;20033;-75
2022/04/30 03:34:01;;;;;;;10.10;8.30;;;;;;;;;;4909272;29;20021;-79
2022/04/30 03:36:29;;;;;;;13.95;10.07;;;;;;;;;;4910360;29;20391;-77
2022/04/30 03:38:55;;;;;;;13.25;9.30;;;;;;;;;;4908946;29;20136;-78
2022/04/30 03:41:21;;;;;;;21.17;9.57;;;;;;;;;;4906485;29;20056;-75
2022/04/30 03:43:48;;;;;;;12.80;10.52;;;;;;;;;;4910057;29;20135;-75
2022/04/30 03:46:14;;;;;;;16.02;11.98;;;;;;;;;;4907159;29;20084;-78
2022/04/30 03:48:40;;;;;;;18.38;12.68;;;;;;;;;;4908450;29;20043;-77
2022/04/30 03:51:06;;;;;;;17.35;12.57;;;;;;;;;;4909073;29;20036;-75
2022/04/30 03:53:32;;;;;;;23.15;13.85;;;;;;;;;;4909078;29;20623;-78
2022/04/30 03:56:00;;;;;;;18.70;13.80;;;;;;;;;;4912499;29;20035;-74
2022/04/30 03:58:27;;;;;;;15.25;11.93;;;;;;;;;;4910695;29;20041;-74
2022/04/30 04:00:53;;;;;;;14.88;10.52;;;;;;;;;;4913018;29;20020;-78
2022/04/30 04:03:20;;;;;;;15.15;10.70;;;;;;;;;;4910245;29;20031;-75
2022/04/30 04:05:47;;;;;;;17.25;11.60;;;;;;;;;;4911854;29;20502;-74
2022/04/30 04:08:14;;;;;;;17.55;11.98;;;;;;;;;;4909564;29;20096;-75
2022/04/30 04:10:46;;;;;;;14.48;11.85;;;;;;;;;;4910778;29;20031;-75
2022/04/30 04:18:42;;;;;;;18.15;11.35;;;;;;;;;;4909487;29;20055;-77
2022/04/30 04:21:08;;;;;;;16.05;12.00;;;;;;;;;;4908998;29;20048;-77
2022/04/30 04:26:20;;;;;;;16.80;11.55;;;;;;;;;;4909745;29;20128;-75
2022/04/30 04:28:46;;;;;;;18.17;11.52;;;;;;;;;;4911618;29;20037;-75
2022/04/30 04:31:12;;;;;;;13.85;10.27;;;;;;;;;;4909804;29;20501;-76
2022/04/30 04:33:38;;;;;;;11.65;9.50;;;;;;;;;;4909893;29;20057;-76
2022/04/30 04:36:05;;;;;;;13.20;9.63;;;;;;;;;;4908221;29;20021;-76
2022/04/30 04:38:31;;;;;;;14.75;9.50;;;;;;;;;;4913289;29;20039;-78
2022/04/30 04:40:57;;;;;;;12.60;9.63;;;;;;;;;;4895499;29;20040;-76
2022/04/30 04:43:23;;;;;;;14.82;9.80;;;;;;;;;;4905587;29;20056;-76
2022/04/30 04:45:56;;;;;;;16.10;9.38;;;;;;;;;;4911909;29;20025;-79
2022/04/30 04:48:23;;;;;;;16.23;9.20;;;;;;;;;;4885171;29;20052;-79
2022/04/30 04:50:53;;;;;;;13.32;9.73;;;;;;;;;;4902020;29;20047;-79
2022/04/30 04:53:56;;;;;;;14.73;8.95;;;;;;;;;;4908875;29;20031;-82
2022/04/30 05:05:18;;;;;;;13.48;9.00;;;;;;;;;;5311627;23;20082;-77
2022/04/30 05:07:45;;;;;;;19.67;9.57;;;;;;;;;;4908239;29;20048;-72
2022/04/30 05:10:11;;;;;;;15.18;9.43;;;;;;;;;;4898393;29;20053;-75
2022/04/30 05:12:37;;;;;;;13.70;10.02;;;;;;;;;;4898261;29;20041;-72
2022/04/30 05:15:08;;;;;;;17.67;10.52;;;;;;;;;;4895029;29;20048;-72
2022/04/30 05:17:34;;;;;;;17.20;10.82;;;;;;;;;;4886920;29;20050;-73
2022/04/30 05:20:00;;;;;;;16.42;10.27;;;;;;;;;;4886049;29;20028;-73
2022/04/30 05:22:26;;;;;;;14.35;10.55;;;;;;;;;;4886370;29;20104;-73
2022/04/30 05:24:52;;;;;;;21.73;12.27;;;;;;;;;;4869720;29;20037;-73
2022/04/30 05:27:30;;;;;;;16.27;11.15;;;;;;;;;;4884868;29;20499;-77
2022/04/30 05:29:56;;;;;;;18.38;12.25;;;;;;;;;;4874377;29;20477;-78
2022/04/30 05:33:00;;;;;;;14.68;11.65;;;;;;;;;;4888261;29;20033;-79
2022/04/30 05:41:10;;;;;;;13.70;11.65;;;;;;;;;;5588879;23;20164;-77
2022/04/30 05:43:38;;;;;;;19.45;12.65;;;;;;;;;;4921270;29;20056;-77
2022/04/30 05:46:04;;;;;;;15.88;11.73;;;;;;;;;;4917613;29;20537;-77
2022/04/30 05:48:57;;;;;;;17.40;11.60;;;;;;;;;;4923700;29;20079;-78
2022/04/30 05:51:25;;;;;;;14.75;11.82;;;;;;;;;;4918438;29;20043;-78
2022/04/30 05:54:01;;;;;;;19.83;13.45;;;;;;;;;;4938573;29;20027;-80
2022/04/30 05:56:30;;;;;;;20.55;13.88;;;;;;;;;;4918120;29;20024;-78
2022/04/30 05:58:57;;;;;;;15.10;11.25;;;;;;;;;;4934132;29;20091;-78
2022/04/30 06:01:26;;;;;;;21.77;14.73;;;;;;;;;;4929663;29;20050;-78
2022/04/30 06:04:38;;;;;;;13.48;10.90;;;;;;;;;;4936809;29;20057;-79
2022/04/30 06:07:24;;;;;;;12.82;9.50;;;;;;;;;;4899720;29;20032;-80
2022/04/30 06:10:00;;;;;;;10.23;8.95;;;;;;;;;;4899017;29;20025;-83
2022/04/30 06:29:38;;;;;;;9.05;7.47;;;;;;;;;;4847887;29;20053;-81
2022/04/30 06:41:25;;;;;;;8.80;6.45;;;;;;;;;;4892254;27;20044;-79
2022/04/30 06:47:06;;;;;;;9.13;6.25;;;;;;;;;;5006224;23;20059;-83
2022/04/30 06:49:50;;;;;;;7.47;6.43;;;;;;;;;;4912394;29;20039;-91
2022/04/30 06:52:16;;;;;;;9.13;7.20;;;;;;;;;;4897123;29;20033;-87
2022/04/30 07:02:57;;;;;;;13.23;7.60;;;;;;;;;;5450989;23;20510;-87
2022/04/30 07:05:24;;;;;;;10.38;7.88;;;;;;;;;;4919655;29;20046;-88
2022/04/30 07:07:50;;;;;;;9.63;7.65;;;;;;;;;;4909345;29;20048;-84
2022/04/30 07:10:16;;;;;;;11.13;7.22;;;;;;;;;;4918477;29;20055;-85
2022/04/30 07:12:42;;;;;;;12.43;6.95;;;;;;;;;;4917497;29;20051;-84
2022/04/30 07:15:08;;;;;;;11.68;6.72;;;;;;;;;;4934676;29;20038;-83
2022/04/30 07:17:34;;;;;;;7.53;6.72;;;;;;;;;;4916704;29;20055;-90
2022/04/30 07:20:00;;;;;;;8.45;6.57;;;;;;;;;;4912259;29;20052;-90
2022/04/30 07:22:26;;;;;;;8.85;6.68;;;;;;;;;;4897176;29;20032;-88
2022/04/30 07:24:52;;;;;;;7.40;5.80;;;;;;;;;;4922258;29;20028;-92
2022/04/30 07:27:18;;;;;;;8.57;6.45;;;;;;;;;;4918996;29;20047;-87
2022/04/30 07:29:44;;;;;;;8.55;6.90;;;;;;;;;;4920294;29;20399;-84
2022/04/30 07:32:11;;;;;;;15.05;6.85;;;;;;;;;;4916658;29;20052;-79
2022/04/30 07:34:38;;;;;;;8.88;6.97;;;;;;;;;;4921354;29;20028;-85
2022/04/30 07:37:10;;;;;;;10.35;7.10;;;;;;;;;;4916639;29;20119;-89
2022/04/30 07:39:37;;;;;;;8.25;6.90;;;;;;;;;;4915249;29;20036;-88
2022/04/30 07:42:03;;;;;;;8.57;6.43;;;;;;;;;;4916329;29;20036;-79
2022/04/30 07:44:30;;;;;;;13.40;6.75;;;;;;;;;;4932029;29;20032;-83
2022/04/30 07:46:56;;;;;;;7.32;6.00;;;;;;;;;;4935398;29;20083;-84
2022/04/30 07:49:22;;;;;;;8.07;6.35;;;;;;;;;;4934026;29;20732;-84
2022/04/30 07:51:57;;;;;;;10.75;7.38;;;;;;;;;;4900051;29;20032;-85
2022/04/30 07:54:24;;;;;;;10.95;6.82;;;;;;;;;;4898969;29;20059;-89
2022/04/30 07:56:56;;;;;;;9.57;7.70;;;;;;;;;;4915785;29;20023;-85
2022/04/30 07:59:25;;;;;;;7.90;6.53;;;;;;;;;;4911321;29;20060;-79
2022/04/30 08:01:55;;;;;;;8.95;6.72;;;;;;;;;;4912842;29;20028;-77
2022/04/30 08:04:21;;;;;;;7.88;7.07;;;;;;;;;;4921027;29;20112;-78
2022/04/30 08:06:50;;;;;;;8.73;6.82;;;;;;;;;;4926506;29;20036;-78
2022/04/30 08:22:47;;;;;;;11.70;8.85;;;;;;;;;;4964420;23;20059;-73
2022/04/30 08:25:14;;;;;;;9.65;7.40;;;;;;;;;;4940710;29;20038;-75
2022/04/30 08:27:41;;;;;;;10.02;7.28;;;;;;;;;;4924131;29;20397;-74
2022/04/30 08:30:34;;;;;;;10.02;7.93;;;;;;;;;;4956730;28;20008;-77
2022/04/30 08:33:26;;;;;;;10.45;7.30;;;;;;;;;;4962272;28;20035;-78
2022/04/30 08:35:55;;;;;;;10.30;8.07;;;;;;;;;;4935891;29;20038;-76
2022/04/30 08:38:22;;;;;;;10.15;7.95;;;;;;;;;;4948623;29;20034;-76
2022/04/30 08:40:52;;;;;;;8.65;7.00;;;;;;;;;;4948342;29;20486;-76
2022/04/30 08:43:20;;;;;;;9.20;7.00;;;;;;;;;;4947983;29;20413;-77
2022/04/30 08:45:55;;;;;;;10.57;6.25;;;;;;;;;;4945593;29;20058;-75
2022/04/30 08:48:31;;;;;;;;;;;;;;;;;;4938430;29;20103;-74
2022/04/30 08:50:57;;;;;;;9.48;5.75;;;;;;;;;;4937634;29;19914;-73
2022/04/30 08:53:23;;;;;;;8.25;5.13;;;;;;;;;;4936400;29;20087;-73
2022/04/30 08:55:49;;;;;;;8.40;6.72;;;;;;;;;;4938025;29;20027;-75
2022/04/30 08:58:16;;;;;;;8.65;6.47;;;;;;;;;;4938272;29;20149;-73
2022/04/30 09:00:43;;;;;;;9.00;6.15;;;;;;;;;;4937954;29;20026;-74
2022/04/30 09:03:13;;;;;;;18.73;7.55;;;;;;;;;;4938213;29;20054;-74
2022/04/30 09:05:39;;;;;;;11.50;7.70;;;;;;;;;;4938036;29;20504;-74
2022/04/30 09:08:06;;;;;;;8.52;6.72;;;;;;;;;;4938052;29;20047;-73
2022/04/30 09:10:33;;;;;;;7.10;6.32;;;;;;;;;;4937619;29;20495;-76
2022/04/30 09:13:10;;;;;;;11.30;6.70;;;;;;;;;;4937766;29;20038;-73
2022/04/30 09:15:37;;;;;;;7.65;6.65;;;;;;;;;;4919208;29;20036;-73
2022/04/30 09:18:04;;;;;;;11.25;6.97;;;;;;;;;;4918452;29;20067;-74
2022/04/30 09:20:31;;;;;;;9.20;6.95;;;;;;;;;;4918557;29;20031;-74
2022/04/30 09:22:57;;;;;;;12.98;9.52;;;;;;;;;;4918545;29;20131;-73
2022/04/30 09:25:23;;;;;;;13.57;10.50;;;;;;;;;;4918593;29;20035;-73
2022/04/30 09:27:51;;;;;;;18.33;11.02;;;;;;;;;;4901631;29;20458;-73
2022/04/30 09:30:32;;;;;;;12.35;10.45;;;;;;;;;;4918479;29;20116;-73
2022/04/30 09:33:09;;;;;;;11.30;9.85;;;;;;;;;;4918263;29;20024;-76
2022/04/30 09:38:24;;;;;;;12.88;9.52;;;;;;;;;;4917415;29;20088;-73
2022/04/30 09:40:54;;;;;;;14.05;10.38;;;;;;;;;;4916872;29;20393;-76
2022/04/30 09:43:21;;;;;;;12.23;9.65;;;;;;;;;;4926270;29;20032;-74
2022/04/30 09:45:48;;;;;;;12.13;9.80;;;;;;;;;;4925207;29;20017;-76
2022/04/30 09:54:10;;;;;;;11.05;9.05;;;;;;;;;;4855921;29;20150;-76
2022/04/30 09:57:01;;;;;;;17.08;10.30;;;;;;;;;;4849451;29;20037;-76
2022/04/30 09:59:30;;;;;;;13.90;10.15;;;;;;;;;;4840176;29;20034;-76
2022/04/30 10:02:00;;;;;;;12.82;10.30;;;;;;;;;;4841360;29;20037;-77
2022/04/30 10:04:29;;;;;;;20.38;10.30;;;;;;;;;;4845770;29;20197;-79
2022/04/30 10:33:23;;;;;;;14.85;9.07;;;;;;;;;;5186938;23;20067;-77
2022/04/30 10:35:49;;;;;;;10.27;8.77;;;;;;;;;;4907055;29;20179;-73
2022/04/30 10:38:20;;;;;;;12.73;9.15;;;;;;;;;;4924480;29;20058;-73
2022/04/30 10:40:48;;;;;;;13.15;7.95;;;;;;;;;;4907609;29;20040;-74
2022/04/30 10:43:18;;;;;;;10.93;8.38;;;;;;;;;;4912874;29;20028;-74
2022/04/30 10:45:44;;;;;;;12.93;7.40;;;;;;;;;;4916980;29;20032;-74
2022/04/30 10:48:10;;;;;;;6.03;4.78;;;;;;;;;;4916647;29;20040;-75
2022/04/30 10:50:37;;;;;;;6.65;5.75;;;;;;;;;;4917086;29;20020;-74
2022/04/30 10:53:03;;;;;;;9.52;7.13;;;;;;;;;;4917427;29;20039;-75
2022/04/30 10:55:30;;;;;;;6.18;5.00;;;;;;;;;;4917060;29;20028;-74
2022/04/30 10:57:56;;;;;;;9.00;7.68;;;;;;;;;;4916732;29;20034;-75
2022/04/30 11:00:22;;;;;;;8.18;6.88;;;;;;;;;;4915848;29;20036;-75
2022/04/30 11:02:49;;;;;;;8.93;6.10;;;;;;;;;;4916106;29;20083;-75
2022/04/30 11:05:24;;;;;;;8.10;6.07;;;;;;;;;;4916474;29;20087;-75
2022/04/30 11:07:51;;;;;;;10.48;6.22;;;;;;;;;;4916442;29;20443;-75
2022/04/30 11:10:17;;;;;;;10.73;6.40;;;;;;;;;;4899894;29;20379;-74
2022/04/30 11:12:44;;;;;;;7.80;5.70;;;;;;;;;;4916460;29;20475;-74
2022/04/30 11:15:13;;;;;;;7.20;5.22;;;;;;;;;;4916897;29;20028;-75
2022/04/30 11:17:43;;;;;;;7.82;5.65;;;;;;;;;;4922308;29;20140;-74
2022/04/30 11:20:10;;;;;;;7.45;5.47;;;;;;;;;;4894999;29;20091;-76
2022/04/30 11:22:36;;;;;;;7.47;5.38;;;;;;;;;;4916703;29;20517;-75
2022/04/30 11:25:02;;;;;;;5.30;4.75;;;;;;;;;;4916178;29;20032;-75
2022/04/30 11:27:34;;;;;;;6.53;5.32;;;;;;;;;;4916375;29;20542;-74
2022/04/30 11:30:03;;;;;;;7.63;5.00;;;;;;;;;;4898601;29;20028;-74
2022/04/30 11:32:32;;;;;;;8.45;4.82;;;;;;;;;;4917521;29;20493;-74
2022/04/30 11:35:04;;;;;;;5.05;4.20;;;;;;;;;;4916213;29;20035;-74
2022/04/30 11:37:40;;;;;;;7.38;4.93;;;;;;;;;;4916720;29;20454;-74
2022/04/30 11:40:06;;;;;;;5.28;4.40;;;;;;;;;;4919791;29;20036;-74
2022/04/30 11:42:32;;;;;;;8.38;4.32;;;;;;;;;;4914859;29;20110;-74
2022/04/30 11:44:59;;;;;;;7.63;4.57;;;;;;;;;;4916203;29;20034;-74
2022/04/30 11:47:25;;;;;;;9.10;4.43;;;;;;;;;;4915866;29;20044;-76
2022/04/30 11:50:03;;;;;;;6.10;4.28;;;;;;;;;;4916769;29;20027;-74
2022/04/30 11:52:29;;;;;;;9.43;5.18;;;;;;;;;;4914745;29;20043;-74
2022/04/30 11:54:55;;;;;;;6.63;4.53;;;;;;;;;;4919430;29;20024;-74
2022/04/30 11:57:22;;;;;;;6.00;4.47;;;;;;;;;;4919914;29;20024;-74
2022/04/30 11:59:49;;;;;;;9.02;5.07;;;;;;;;;;4920245;29;20064;-75
2022/04/30 12:02:16;;;;;;;8.10;5.75;;;;;;;;;;4919222;29;20039;-74
2022/04/30 12:04:45;;;;;;;6.75;4.50;;;;;;;;;;4919098;29;20087;-74
2022/04/30 12:07:11;;;;;;;7.43;5.10;;;;;;;;;;4920278;29;20155;-75
2022/04/30 12:09:38;;;;;;;6.03;4.97;;;;;;;;;;4909076;29;20029;-74
2022/04/30 12:12:16;;;;;;;7.65;5.15;;;;;;;;;;4908364;29;20032;-74
2022/04/30 12:14:46;;;;;;;6.90;5.10;;;;;;;;;;4907304;29;20106;-76
2022/04/30 12:17:12;;;;;;;6.90;4.95;;;;;;;;;;4900822;29;20032;-73
2022/04/30 12:25:33;;;;;;;9.38;5.35;;;;;;;;;;4860057;29;20123;-75
2022/04/30 12:28:02;;;;;;;8.38;6.45;;;;;;;;;;4860153;29;20040;-75
2022/04/30 12:30:29;;;;;;;10.68;6.25;;;;;;;;;;4860000;29;20652;-74
2022/04/30 12:32:56;;;;;;;8.18;5.65;;;;;;;;;;4859378;29;20080;-76
2022/04/30 12:35:32;;;;;;;7.85;6.15;;;;;;;;;;4860238;29;20144;-74
2022/04/30 12:38:05;;;;;;;7.63;5.68;;;;;;;;;;4862080;29;20029;-74
2022/04/30 12:40:31;;;;;;;9.48;6.03;;;;;;;;;;4859525;29;20026;-75
2022/04/30 12:42:57;;;;;;;9.02;6.13;;;;;;;;;;4859183;29;20209;-75
2022/04/30 12:45:23;;;;;;;6.85;5.50;;;;;;;;;;4859428;29;20215;-75
2022/04/30 12:47:50;;;;;;;7.55;5.28;;;;;;;;;;4860217;29;20531;-74
2022/04/30 12:50:16;;;;;;;5.25;4.75;;;;;;;;;;4859126;29;20084;-74
2022/04/30 12:52:42;;;;;;;8.73;5.07;;;;;;;;;;4859593;29;20527;-75
2022/04/30 12:55:10;;;;;;;7.90;5.57;;;;;;;;;;4860252;29;20032;-74
2022/04/30 12:57:37;;;;;;;10.48;5.90;;;;;;;;;;4901275;29;20387;-75
2022/04/30 13:00:04;;;;;;;6.90;5.15;;;;;;;;;;4910239;29;20035;-74
2022/04/30 13:02:31;;;;;;;16.58;4.38;;;;;;;;;;4917178;29;20032;-76
2022/04/30 13:05:00;;;;;;;6.13;4.50;;;;;;;;;;4921908;29;20038;-73
2022/04/30 13:07:46;;;;;;;10.88;5.60;;;;;;;;;;4917987;29;20055;-76
2022/04/30 13:16:10;;;;;;;10.93;4.72;;;;;;;;;;4934685;29;20050;-76
2022/04/30 13:19:01;;;;;;;5.22;4.68;;;;;;;;;;4943512;29;20011;-79
2022/04/30 13:21:27;;;;;;;6.78;4.85;;;;;;;;;;4916688;29;20063;-77
2022/04/30 13:24:11;;;;;;;6.25;4.63;;;;;;;;;;4933355;29;20055;-75
2022/04/30 13:26:38;;;;;;;7.68;4.72;;;;;;;;;;4926190;29;20024;-77
2022/04/30 13:29:14;;;;;;;5.05;4.55;;;;;;;;;;4925414;29;20187;-78
2022/04/30 13:31:42;;;;;;;7.70;4.82;;;;;;;;;;4924267;29;20028;-73
2022/04/30 13:34:08;;;;;;;6.00;4.57;;;;;;;;;;4922135;29;20048;-73
2022/04/30 13:36:35;;;;;;;5.15;4.40;;;;;;;;;;4926365;29;20036;-73
2022/04/30 13:39:04;;;;;;;6.88;4.30;;;;;;;;;;4926147;29;20015;-73
2022/04/30 13:41:30;;;;;;;4.85;4.13;;;;;;;;;;4923383;29;20459;-73
2022/04/30 13:47:19;;;;;;;8.77;4.50;;;;;;;;;;4885060;29;20062;-75
2022/04/30 13:50:06;;;;;;;5.88;4.00;;;;;;;;;;4862173;29;20044;-78
2022/04/30 13:52:55;;;;;;;9.68;4.50;;;;;;;;;;4874602;29;20038;-78
2022/04/30 13:55:46;;;;;;;8.05;5.47;;;;;;;;;;4872491;29;20081;-78
2022/04/30 13:58:32;;;;;;;4.68;4.00;;;;;;;;;;4867103;29;20098;-75
2022/04/30 14:00:59;;;;;;;7.95;4.40;;;;;;;;;;4850764;29;20050;-75
2022/04/30 14:06:12;;;;;;;6.05;4.13;;;;;;;;;;5531082;23;20056;-79
2022/04/30 14:08:38;;;;;;;6.03;4.13;;;;;;;;;;4898927;29;20043;-75
2022/04/30 14:11:04;;;;;;;5.28;4.45;;;;;;;;;;4915801;29;20032;-76
2022/04/30 14:16:15;;;;;;;4.18;3.78;;;;;;;;;;4900302;29;20068;-71
2022/04/30 14:18:41;;;;;;;5.32;3.90;;;;;;;;;;4899601;29;20546;-72
2022/04/30 14:21:08;;;;;;;17.30;4.68;;;;;;;;;;4899542;29;20025;-72
2022/04/30 14:23:36;;;;;;;4.57;3.67;;;;;;;;;;4899791;29;20116;-72
2022/04/30 14:26:02;;;;;;;7.40;4.53;;;;;;;;;;4899189;29;20072;-72
2022/04/30 14:28:28;;;;;;;5.30;4.20;;;;;;;;;;4899489;29;20119;-72
2022/04/30 14:30:54;;;;;;;7.53;5.18;;;;;;;;;;4894856;29;20096;-72
2022/04/30 14:33:21;;;;;;;6.95;4.63;;;;;;;;;;4899412;29;20032;-71
2022/04/30 14:35:48;;;;;;;5.10;4.20;;;;;;;;;;4898557;29;20060;-72
2022/04/30 14:38:15;;;;;;;4.72;3.70;;;;;;;;;;4899783;29;20071;-72
2022/04/30 14:40:44;;;;;;;9.32;3.80;;;;;;;;;;4897869;29;20391;-73
2022/04/30 14:43:11;;;;;;;5.95;3.97;;;;;;;;;;4899341;29;20016;-72
2022/04/30 14:45:38;;;;;;;5.20;3.97;;;;;;;;;;4897749;29;20607;-74
2022/04/30 14:48:05;;;;;;;4.35;3.60;;;;;;;;;;4898578;29;20033;-74
2022/04/30 14:50:31;;;;;;;8.52;4.30;;;;;;;;;;4898430;29;20029;-73
2022/04/30 14:52:58;;;;;;;6.93;4.30;;;;;;;;;;4898222;29;20487;-71
2022/04/30 14:55:26;;;;;;;5.63;3.85;;;;;;;;;;4898525;29;20047;-72
2022/04/30 14:57:52;;;;;;;4.93;3.80;;;;;;;;;;4886011;29;20032;-79
2022/04/30 15:00:18;;;;;;;5.72;3.70;;;;;;;;;;4884904;29;20100;-72
2022/04/30 15:02:47;;;;;;;6.18;4.00;;;;;;;;;;4893661;29;20028;-74
2022/04/30 15:05:14;;;;;;;6.10;3.72;;;;;;;;;;4898407;29;20024;-75
2022/04/30 15:07:40;;;;;;;6.38;4.07;;;;;;;;;;4897140;29;20037;-74
2022/04/30 15:10:06;;;;;;;5.78;3.92;;;;;;;;;;4898111;29;20053;-75
2022/04/30 15:12:34;;;;;;;4.20;3.50;;;;;;;;;;4896411;29;20028;-75
2022/04/30 15:15:00;;;;;;;9.35;3.78;;;;;;;;;;4896571;29;20027;-75
2022/04/30 15:17:27;;;;;;;6.00;3.78;;;;;;;;;;4897526;29;20428;-74
2022/04/30 15:19:53;;;;;;;4.30;3.40;;;;;;;;;;4895764;29;20028;-77
2022/04/30 15:22:19;;;;;;;5.18;3.38;;;;;;;;;;4881621;29;20064;-76
2022/04/30 15:24:46;;;;;;;10.40;4.05;;;;;;;;;;4898094;29;20043;-74
2022/04/30 15:27:12;;;;;;;7.38;3.65;;;;;;;;;;4897425;29;20032;-76
2022/04/30 15:29:38;;;;;;;6.28;3.60;;;;;;;;;;4897542;29;20061;-74
2022/04/30 15:32:05;;;;;;;4.30;3.55;;;;;;;;;;4896851;29;20035;-74
2022/04/30 15:34:31;;;;;;;7.28;3.75;;;;;;;;;;4897412;29;20068;-74
2022/04/30 15:36:57;;;;;;;4.85;3.60;;;;;;;;;;4893222;29;20476;-75
2022/04/30 15:39:24;;;;;;;3.97;3.28;;;;;;;;;;4897840;29;20036;-73
2022/04/30 15:41:53;;;;;;;6.07;3.17;;;;;;;;;;4897090;29;20064;-88
2022/04/30 15:44:20;;;;;;;6.32;3.35;;;;;;;;;;4897679;29;20021;-74
2022/04/30 15:52:17;;;;;;;5.70;3.60;;;;;;;;;;4899316;29;20120;-74
2022/04/30 15:54:43;;;;;;;5.55;3.90;;;;;;;;;;4894794;29;20025;-75
2022/04/30 15:57:10;;;;;;;5.82;4.20;;;;;;;;;;4889920;29;20119;-75
2022/04/30 15:59:37;;;;;;;7.75;4.78;;;;;;;;;;4899100;29;20386;-74
2022/04/30 16:02:05;;;;;;;6.40;3.90;;;;;;;;;;4898012;29;20368;-74
2022/04/30 16:04:33;;;;;;;4.88;3.72;;;;;;;;;;4898869;29;20061;-74
2022/04/30 16:06:59;;;;;;;6.28;3.72;;;;;;;;;;4897372;29;20040;-74
2022/04/30 16:09:25;;;;;;;5.63;3.88;;;;;;;;;;4898595;29;20041;-74
2022/04/30 16:11:51;;;;;;;5.90;3.20;;;;;;;;;;4898535;29;20020;-73
2022/04/30 16:14:19;;;;;;;3.53;3.00;;;;;;;;;;4898761;29;20075;-74
2022/04/30 16:16:46;;;;;;;6.10;3.38;;;;;;;;;;4896950;29;20033;-76
2022/04/30 16:19:14;;;;;;;5.30;3.45;;;;;;;;;;4894159;29;20391;-73
2022/04/30 16:21:42;;;;;;;7.60;3.65;;;;;;;;;;4898504;29;20041;-73
2022/04/30 16:24:08;;;;;;;4.78;3.30;;;;;;;;;;4898179;29;20101;-73
2022/04/30 16:26:40;;;;;;;5.28;3.60;;;;;;;;;;4897786;29;20038;-72
2022/04/30 16:29:09;;;;;;;4.10;3.40;;;;;;;;;;4898080;29;20044;-73
2022/04/30 16:31:39;;;;;;;4.25;3.60;;;;;;;;;;4897795;29;20036;-73
2022/04/30 16:34:06;;;;;;;5.70;3.40;;;;;;;;;;4900063;29;20452;-73
2022/04/30 16:36:34;;;;;;;4.30;3.83;;;;;;;;;;4903141;29;20024;-73
2022/04/30 16:39:04;;;;;;;5.75;3.53;;;;;;;;;;4899987;29;20391;-72
2022/04/30 16:41:32;;;;;;;7.97;3.88;;;;;;;;;;4902180;29;20029;-72
2022/04/30 16:43:59;;;;;;;4.82;3.67;;;;;;;;;;4900030;29;20487;-72
2022/04/30 16:46:26;;;;;;;4.38;3.30;;;;;;;;;;4885143;29;20045;-73
2022/04/30 16:48:52;;;;;;;6.57;3.42;;;;;;;;;;4900588;29;20486;-73
2022/04/30 16:54:03;;;;;;;112.00;35.50;;;;;;;;;;4903135;29;20143;-73
2022/04/30 16:59:13;;;;;;;11.50;4.35;;;;;;;;;;4899551;29;20039;-76
2022/04/30 17:01:40;;;;;;;7.72;4.25;;;;;;;;;;4898573;29;20032;-74
2022/04/30 17:04:06;;;;;;;8.80;4.40;;;;;;;;;;4899702;29;20036;-75
2022/04/30 17:06:34;;;;;;;10.80;4.35;;;;;;;;;;4896639;29;20064;-76
2022/04/30 17:09:00;;;;;;;7.82;4.28;;;;;;;;;;4901883;29;20376;-73
2022/04/30 17:11:26;;;;;;;9.00;4.43;;;;;;;;;;4901618;29;20028;-73
2022/04/30 17:13:52;;;;;;;9.70;4.15;;;;;;;;;;4902624;29;20028;-72
2022/04/30 17:16:18;;;;;;;8.07;4.40;;;;;;;;;;4899958;29;20067;-71
2022/04/30 17:18:45;;;;;;;11.32;4.03;;;;;;;;;;4899961;29;20380;-72
2022/04/30 17:21:11;;;;;;;8.68;3.97;;;;;;;;;;4899804;29;20072;-69